sensor_id;sensor_type;location;lat;lon;timestamp;P1;durP1;ratioP1;P2;durP2;ratioP2
59008;SDS011;44794;42.652;23.318;2023-09-19T00:01:14;1.25;;;0.80;;
59008;SDS011;44794;42.652;23.318;2023-09-19T00:03:40;4.07;;;1.63;;
59008;SDS011;44794;42.652;23.318;2023-09-19T00:06:07;1.65;;;0.80;;
59008;SDS011;44794;42.652;23.318;2023-09-19T00:08:33;3.75;;;1.33;;
59008;SDS011;44794;42.652;23.318;2023-09-19T00:10:59;1.88;;;1.10;;
59008;SDS011;44794;42.652;23.318;2023-09-19T00:13:30;1.63;;;1.13;;
59008;SDS011;44794;42.652;23.318;2023-09-19T00:15:57;1.52;;;1.08;;
59008;SDS011;44794;42.652;23.318;2023-09-19T00:18:24;3.53;;;1.58;;
59008;SDS011;44794;42.652;23.318;2023-09-19T00:20:57;2.58;;;1.45;;
59008;SDS011;44794;42.652;23.318;2023-09-19T00:23:23;1.25;;;0.95;;
59008;SDS011;44794;42.652;23.318;2023-09-19T00:25:49;2.28;;;1.65;;
59008;SDS011;44794;42.652;23.318;2023-09-19T00:28:17;1.50;;;1.10;;
59008;SDS011;44794;42.652;23.318;2023-09-19T00:30:45;1.13;;;1.00;;
59008;SDS011;44794;42.652;23.318;2023-09-19T00:33:15;1.73;;;1.42;;
59008;SDS011;44794;42.652;23.318;2023-09-19T00:35:50;3.65;;;1.33;;
59008;SDS011;44794;42.652;23.318;2023-09-19T00:38:17;0.80;;;0.80;;
59008;SDS011;44794;42.652;23.318;2023-09-19T00:40:46;0.95;;;0.85;;
59008;SDS011;44794;42.652;23.318;2023-09-19T00:43:12;1.50;;;0.98;;
59008;SDS011;44794;42.652;23.318;2023-09-19T00:45:38;2.00;;;1.00;;
59008;SDS011;44794;42.652;23.318;2023-09-19T00:48:08;1.57;;;0.80;;
59008;SDS011;44794;42.652;23.318;2023-09-19T00:50:34;1.35;;;0.98;;
59008;SDS011;44794;42.652;23.318;2023-09-19T00:53:01;4.97;;;1.80;;
59008;SDS011;44794;42.652;23.318;2023-09-19T00:55:32;1.42;;;1.02;;
59008;SDS011;44794;42.652;23.318;2023-09-19T00:57:59;1.10;;;0.88;;
59008;SDS011;44794;42.652;23.318;2023-09-19T01:00:25;1.55;;;1.00;;
59008;SDS011;44794;42.652;23.318;2023-09-19T01:02:51;2.65;;;1.33;;
59008;SDS011;44794;42.652;23.318;2023-09-19T01:05:16;2.40;;;1.27;;
59008;SDS011;44794;42.652;23.318;2023-09-19T01:07:43;2.58;;;1.38;;
59008;SDS011;44794;42.652;23.318;2023-09-19T01:10:14;2.00;;;0.88;;
59008;SDS011;44794;42.652;23.318;2023-09-19T01:12:47;2.58;;;1.50;;
59008;SDS011;44794;42.652;23.318;2023-09-19T01:20:45;1.98;;;1.17;;
59008;SDS011;44794;42.652;23.318;2023-09-19T01:32:04;0.82;;;0.82;;
59008;SDS011;44794;42.652;23.318;2023-09-19T01:34:46;2.25;;;1.08;;
59008;SDS011;44794;42.652;23.318;2023-09-19T01:37:15;2.15;;;1.30;;
59008;SDS011;44794;42.652;23.318;2023-09-19T01:39:49;1.08;;;0.88;;
59008;SDS011;44794;42.652;23.318;2023-09-19T01:53:07;2.08;;;1.08;;
59008;SDS011;44794;42.652;23.318;2023-09-19T01:55:50;3.42;;;1.45;;
59008;SDS011;44794;42.652;23.318;2023-09-19T01:58:20;2.83;;;0.95;;
59008;SDS011;44794;42.652;23.318;2023-09-19T02:00:54;4.65;;;0.95;;
59008;SDS011;44794;42.652;23.318;2023-09-19T02:03:24;1.52;;;1.38;;
59008;SDS011;44794;42.652;23.318;2023-09-19T02:05:52;4.13;;;1.90;;
59008;SDS011;44794;42.652;23.318;2023-09-19T02:08:19;3.50;;;1.58;;
59008;SDS011;44794;42.652;23.318;2023-09-19T02:10:45;2.67;;;1.38;;
59008;SDS011;44794;42.652;23.318;2023-09-19T02:13:15;3.92;;;1.65;;
59008;SDS011;44794;42.652;23.318;2023-09-19T02:15:47;2.58;;;1.45;;
59008;SDS011;44794;42.652;23.318;2023-09-19T02:18:12;1.35;;;1.10;;
59008;SDS011;44794;42.652;23.318;2023-09-19T02:20:39;2.70;;;1.42;;
59008;SDS011;44794;42.652;23.318;2023-09-19T02:23:05;2.40;;;1.25;;
59008;SDS011;44794;42.652;23.318;2023-09-19T02:25:30;2.10;;;1.38;;
59008;SDS011;44794;42.652;23.318;2023-09-19T02:28:00;2.17;;;1.40;;
59008;SDS011;44794;42.652;23.318;2023-09-19T02:30:28;3.03;;;1.52;;
59008;SDS011;44794;42.652;23.318;2023-09-19T02:32:54;2.65;;;1.63;;
59008;SDS011;44794;42.652;23.318;2023-09-19T02:35:19;2.33;;;1.95;;
59008;SDS011;44794;42.652;23.318;2023-09-19T02:37:45;2.88;;;1.63;;
59008;SDS011;44794;42.652;23.318;2023-09-19T02:40:11;2.40;;;1.35;;
59008;SDS011;44794;42.652;23.318;2023-09-19T02:42:53;3.28;;;1.60;;
59008;SDS011;44794;42.652;23.318;2023-09-19T02:45:19;3.85;;;1.35;;
59008;SDS011;44794;42.652;23.318;2023-09-19T02:47:45;3.15;;;1.38;;
59008;SDS011;44794;42.652;23.318;2023-09-19T02:50:11;3.75;;;1.58;;
59008;SDS011;44794;42.652;23.318;2023-09-19T02:52:38;2.25;;;1.20;;
59008;SDS011;44794;42.652;23.318;2023-09-19T02:55:08;2.70;;;1.63;;
59008;SDS011;44794;42.652;23.318;2023-09-19T02:57:34;1.20;;;1.10;;
59008;SDS011;44794;42.652;23.318;2023-09-19T03:00:01;4.82;;;1.52;;
59008;SDS011;44794;42.652;23.318;2023-09-19T03:02:28;2.30;;;1.63;;
59008;SDS011;44794;42.652;23.318;2023-09-19T03:04:53;2.30;;;1.23;;
59008;SDS011;44794;42.652;23.318;2023-09-19T03:07:20;3.55;;;1.30;;
59008;SDS011;44794;42.652;23.318;2023-09-19T03:09:46;1.92;;;1.20;;
59008;SDS011;44794;42.652;23.318;2023-09-19T03:12:11;4.07;;;1.40;;
59008;SDS011;44794;42.652;23.318;2023-09-19T03:14:39;1.67;;;1.50;;
59008;SDS011;44794;42.652;23.318;2023-09-19T03:17:05;3.95;;;1.98;;
59008;SDS011;44794;42.652;23.318;2023-09-19T03:19:30;1.30;;;0.85;;
59008;SDS011;44794;42.652;23.318;2023-09-19T03:21:58;2.85;;;1.40;;
59008;SDS011;44794;42.652;23.318;2023-09-19T03:24:24;4.30;;;1.95;;
59008;SDS011;44794;42.652;23.318;2023-09-19T03:26:49;2.28;;;1.10;;
59008;SDS011;44794;42.652;23.318;2023-09-19T03:29:14;4.10;;;2.10;;
59008;SDS011;44794;42.652;23.318;2023-09-19T03:31:42;1.48;;;1.05;;
59008;SDS011;44794;42.652;23.318;2023-09-19T03:34:07;3.38;;;1.17;;
59008;SDS011;44794;42.652;23.318;2023-09-19T03:36:34;2.55;;;1.80;;
59008;SDS011;44794;42.652;23.318;2023-09-19T03:38:59;1.33;;;1.13;;
59008;SDS011;44794;42.652;23.318;2023-09-19T03:41:25;2.35;;;1.17;;
59008;SDS011;44794;42.652;23.318;2023-09-19T03:43:50;5.65;;;2.08;;
59008;SDS011;44794;42.652;23.318;2023-09-19T03:46:15;3.67;;;2.28;;
59008;SDS011;44794;42.652;23.318;2023-09-19T03:48:41;2.45;;;1.23;;
59008;SDS011;44794;42.652;23.318;2023-09-19T03:51:07;2.42;;;1.20;;
59008;SDS011;44794;42.652;23.318;2023-09-19T03:53:33;3.03;;;1.70;;
59008;SDS011;44794;42.652;23.318;2023-09-19T03:55:58;4.45;;;1.88;;
59008;SDS011;44794;42.652;23.318;2023-09-19T03:58:25;2.85;;;1.05;;
59008;SDS011;44794;42.652;23.318;2023-09-19T04:00:50;3.13;;;1.92;;
59008;SDS011;44794;42.652;23.318;2023-09-19T04:03:16;3.45;;;1.77;;
59008;SDS011;44794;42.652;23.318;2023-09-19T04:05:45;2.42;;;1.65;;
59008;SDS011;44794;42.652;23.318;2023-09-19T04:08:14;3.28;;;1.83;;
59008;SDS011;44794;42.652;23.318;2023-09-19T04:10:42;3.95;;;2.13;;
59008;SDS011;44794;42.652;23.318;2023-09-19T04:13:09;3.13;;;1.48;;
59008;SDS011;44794;42.652;23.318;2023-09-19T04:15:34;3.33;;;1.75;;
59008;SDS011;44794;42.652;23.318;2023-09-19T04:17:59;3.58;;;1.80;;
59008;SDS011;44794;42.652;23.318;2023-09-19T04:20:25;5.05;;;2.33;;
59008;SDS011;44794;42.652;23.318;2023-09-19T04:22:50;2.65;;;1.42;;
59008;SDS011;44794;42.652;23.318;2023-09-19T04:25:16;2.67;;;1.60;;
59008;SDS011;44794;42.652;23.318;2023-09-19T04:27:41;2.25;;;1.30;;
59008;SDS011;44794;42.652;23.318;2023-09-19T04:30:07;4.63;;;1.90;;
59008;SDS011;44794;42.652;23.318;2023-09-19T04:32:40;3.73;;;1.40;;
59008;SDS011;44794;42.652;23.318;2023-09-19T04:35:09;3.38;;;1.90;;
59008;SDS011;44794;42.652;23.318;2023-09-19T04:37:38;3.55;;;2.28;;
59008;SDS011;44794;42.652;23.318;2023-09-19T04:40:06;2.97;;;1.60;;
59008;SDS011;44794;42.652;23.318;2023-09-19T04:42:42;3.13;;;1.83;;
59008;SDS011;44794;42.652;23.318;2023-09-19T04:45:08;1.65;;;1.30;;
59008;SDS011;44794;42.652;23.318;2023-09-19T04:47:35;3.20;;;1.30;;
59008;SDS011;44794;42.652;23.318;2023-09-19T04:50:03;6.13;;;1.77;;
59008;SDS011;44794;42.652;23.318;2023-09-19T04:52:30;4.28;;;2.22;;
59008;SDS011;44794;42.652;23.318;2023-09-19T04:54:56;1.92;;;1.42;;
59008;SDS011;44794;42.652;23.318;2023-09-19T04:57:22;4.85;;;2.78;;
59008;SDS011;44794;42.652;23.318;2023-09-19T04:59:48;3.72;;;2.00;;
59008;SDS011;44794;42.652;23.318;2023-09-19T05:02:13;2.80;;;2.08;;
59008;SDS011;44794;42.652;23.318;2023-09-19T05:04:38;4.60;;;2.40;;
59008;SDS011;44794;42.652;23.318;2023-09-19T05:07:04;3.60;;;2.10;;
59008;SDS011;44794;42.652;23.318;2023-09-19T05:09:29;3.70;;;2.08;;
59008;SDS011;44794;42.652;23.318;2023-09-19T05:11:55;3.20;;;1.80;;
59008;SDS011;44794;42.652;23.318;2023-09-19T05:14:21;4.85;;;1.73;;
59008;SDS011;44794;42.652;23.318;2023-09-19T05:16:47;3.28;;;1.83;;
59008;SDS011;44794;42.652;23.318;2023-09-19T05:19:13;5.68;;;2.05;;
59008;SDS011;44794;42.652;23.318;2023-09-19T05:21:38;1.95;;;1.50;;
59008;SDS011;44794;42.652;23.318;2023-09-19T05:24:04;1.83;;;1.40;;
59008;SDS011;44794;42.652;23.318;2023-09-19T05:26:31;2.75;;;1.23;;
59008;SDS011;44794;42.652;23.318;2023-09-19T05:28:57;1.70;;;1.10;;
59008;SDS011;44794;42.652;23.318;2023-09-19T05:31:22;4.35;;;1.17;;
59008;SDS011;44794;42.652;23.318;2023-09-19T05:33:49;3.97;;;1.70;;
59008;SDS011;44794;42.652;23.318;2023-09-19T05:36:15;2.10;;;1.05;;
59008;SDS011;44794;42.652;23.318;2023-09-19T05:38:41;1.15;;;0.80;;
59008;SDS011;44794;42.652;23.318;2023-09-19T05:41:09;2.47;;;1.58;;
59008;SDS011;44794;42.652;23.318;2023-09-19T05:43:38;6.95;;;1.13;;
59008;SDS011;44794;42.652;23.318;2023-09-19T05:46:06;4.90;;;1.20;;
59008;SDS011;44794;42.652;23.318;2023-09-19T05:48:33;3.33;;;1.60;;
59008;SDS011;44794;42.652;23.318;2023-09-19T05:50:58;2.47;;;1.27;;
59008;SDS011;44794;42.652;23.318;2023-09-19T05:53:26;2.47;;;1.70;;
59008;SDS011;44794;42.652;23.318;2023-09-19T05:55:52;2.33;;;0.90;;
59008;SDS011;44794;42.652;23.318;2023-09-19T05:58:18;2.95;;;1.27;;
59008;SDS011;44794;42.652;23.318;2023-09-19T06:00:45;4.25;;;0.93;;
59008;SDS011;44794;42.652;23.318;2023-09-19T06:03:12;1.30;;;0.70;;
59008;SDS011;44794;42.652;23.318;2023-09-19T06:05:39;2.17;;;1.05;;
59008;SDS011;44794;42.652;23.318;2023-09-19T06:08:06;1.42;;;0.70;;
59008;SDS011;44794;42.652;23.318;2023-09-19T06:10:33;1.73;;;1.08;;
59008;SDS011;44794;42.652;23.318;2023-09-19T06:12:59;0.77;;;0.63;;
59008;SDS011;44794;42.652;23.318;2023-09-19T06:15:29;4.47;;;1.58;;
59008;SDS011;44794;42.652;23.318;2023-09-19T06:17:57;2.47;;;1.00;;
59008;SDS011;44794;42.652;23.318;2023-09-19T06:20:24;2.25;;;1.25;;
59008;SDS011;44794;42.652;23.318;2023-09-19T06:22:51;1.65;;;0.77;;
59008;SDS011;44794;42.652;23.318;2023-09-19T06:25:18;2.03;;;0.75;;
59008;SDS011;44794;42.652;23.318;2023-09-19T06:27:44;4.18;;;1.23;;
59008;SDS011;44794;42.652;23.318;2023-09-19T06:30:10;1.98;;;0.90;;
59008;SDS011;44794;42.652;23.318;2023-09-19T06:32:42;1.48;;;0.90;;
59008;SDS011;44794;42.652;23.318;2023-09-19T06:35:14;0.98;;;0.90;;
59008;SDS011;44794;42.652;23.318;2023-09-19T06:37:41;1.02;;;0.77;;
59008;SDS011;44794;42.652;23.318;2023-09-19T06:40:11;1.90;;;1.00;;
59008;SDS011;44794;42.652;23.318;2023-09-19T06:42:43;3.65;;;1.00;;
59008;SDS011;44794;42.652;23.318;2023-09-19T06:45:12;2.13;;;0.90;;
59008;SDS011;44794;42.652;23.318;2023-09-19T06:47:42;1.88;;;0.65;;
59008;SDS011;44794;42.652;23.318;2023-09-19T06:50:09;1.70;;;1.00;;
59008;SDS011;44794;42.652;23.318;2023-09-19T06:52:39;3.45;;;1.20;;
59008;SDS011;44794;42.652;23.318;2023-09-19T06:55:06;1.05;;;0.70;;
59008;SDS011;44794;42.652;23.318;2023-09-19T06:57:32;1.70;;;1.08;;
59008;SDS011;44794;42.652;23.318;2023-09-19T06:59:57;6.53;;;1.08;;
59008;SDS011;44794;42.652;23.318;2023-09-19T07:02:22;2.00;;;1.05;;
59008;SDS011;44794;42.652;23.318;2023-09-19T07:04:48;3.47;;;0.90;;
59008;SDS011;44794;42.652;23.318;2023-09-19T07:07:14;3.10;;;1.27;;
59008;SDS011;44794;42.652;23.318;2023-09-19T07:09:40;0.85;;;0.77;;
59008;SDS011;44794;42.652;23.318;2023-09-19T07:12:07;2.38;;;1.08;;
59008;SDS011;44794;42.652;23.318;2023-09-19T07:14:32;0.93;;;0.80;;
59008;SDS011;44794;42.652;23.318;2023-09-19T07:16:58;1.98;;;1.35;;
59008;SDS011;44794;42.652;23.318;2023-09-19T07:19:25;2.60;;;1.48;;
59008;SDS011;44794;42.652;23.318;2023-09-19T07:21:53;2.60;;;0.93;;
59008;SDS011;44794;42.652;23.318;2023-09-19T07:24:18;1.90;;;0.90;;
59008;SDS011;44794;42.652;23.318;2023-09-19T07:26:45;1.70;;;1.10;;
59008;SDS011;44794;42.652;23.318;2023-09-19T07:29:10;1.73;;;1.42;;
59008;SDS011;44794;42.652;23.318;2023-09-19T07:31:36;2.53;;;1.38;;
59008;SDS011;44794;42.652;23.318;2023-09-19T07:34:01;1.52;;;0.88;;
59008;SDS011;44794;42.652;23.318;2023-09-19T07:36:29;4.20;;;0.68;;
59008;SDS011;44794;42.652;23.318;2023-09-19T07:38:54;2.97;;;1.75;;
59008;SDS011;44794;42.652;23.318;2023-09-19T07:41:23;2.08;;;1.00;;
59008;SDS011;44794;42.652;23.318;2023-09-19T07:43:49;1.75;;;0.88;;
59008;SDS011;44794;42.652;23.318;2023-09-19T07:46:14;1.48;;;0.80;;
59008;SDS011;44794;42.652;23.318;2023-09-19T07:48:39;2.90;;;0.70;;
59008;SDS011;44794;42.652;23.318;2023-09-19T07:51:06;2.72;;;0.80;;
59008;SDS011;44794;42.652;23.318;2023-09-19T07:53:32;3.95;;;1.30;;
59008;SDS011;44794;42.652;23.318;2023-09-19T07:58:31;1.30;;;0.73;;
59008;SDS011;44794;42.652;23.318;2023-09-19T08:01:08;3.53;;;1.05;;
59008;SDS011;44794;42.652;23.318;2023-09-19T08:03:35;1.23;;;0.95;;
59008;SDS011;44794;42.652;23.318;2023-09-19T08:06:09;1.95;;;1.00;;
59008;SDS011;44794;42.652;23.318;2023-09-19T08:08:35;2.20;;;0.90;;
59008;SDS011;44794;42.652;23.318;2023-09-19T08:11:03;3.95;;;0.80;;
59008;SDS011;44794;42.652;23.318;2023-09-19T08:13:38;1.23;;;0.70;;
59008;SDS011;44794;42.652;23.318;2023-09-19T08:16:08;3.63;;;1.73;;
59008;SDS011;44794;42.652;23.318;2023-09-19T08:18:35;3.50;;;1.33;;
59008;SDS011;44794;42.652;23.318;2023-09-19T08:21:00;3.58;;;1.08;;
59008;SDS011;44794;42.652;23.318;2023-09-19T08:23:26;1.17;;;0.98;;
59008;SDS011;44794;42.652;23.318;2023-09-19T08:25:55;1.60;;;0.75;;
59008;SDS011;44794;42.652;23.318;2023-09-19T08:28:21;4.70;;;1.48;;
59008;SDS011;44794;42.652;23.318;2023-09-19T08:30:48;1.48;;;1.25;;
59008;SDS011;44794;42.652;23.318;2023-09-19T08:33:13;6.07;;;1.60;;
59008;SDS011;44794;42.652;23.318;2023-09-19T08:35:40;1.33;;;1.08;;
59008;SDS011;44794;42.652;23.318;2023-09-19T08:38:09;2.83;;;1.45;;
59008;SDS011;44794;42.652;23.318;2023-09-19T08:40:38;2.00;;;1.10;;
59008;SDS011;44794;42.652;23.318;2023-09-19T08:43:06;3.15;;;1.05;;
59008;SDS011;44794;42.652;23.318;2023-09-19T08:45:32;2.20;;;1.10;;
59008;SDS011;44794;42.652;23.318;2023-09-19T08:50:56;3.97;;;1.05;;
59008;SDS011;44794;42.652;23.318;2023-09-19T08:56:38;2.53;;;1.35;;
59008;SDS011;44794;42.652;23.318;2023-09-19T08:59:05;3.25;;;1.67;;
59008;SDS011;44794;42.652;23.318;2023-09-19T09:01:34;3.13;;;1.30;;
59008;SDS011;44794;42.652;23.318;2023-09-19T09:04:01;1.45;;;0.93;;
59008;SDS011;44794;42.652;23.318;2023-09-19T09:06:29;2.00;;;1.15;;
59008;SDS011;44794;42.652;23.318;2023-09-19T09:08:55;2.47;;;1.55;;
59008;SDS011;44794;42.652;23.318;2023-09-19T09:11:21;1.95;;;0.93;;
59008;SDS011;44794;42.652;23.318;2023-09-19T09:13:49;2.72;;;2.25;;
59008;SDS011;44794;42.652;23.318;2023-09-19T09:16:15;3.22;;;0.90;;
59008;SDS011;44794;42.652;23.318;2023-09-19T09:18:44;1.70;;;1.20;;
59008;SDS011;44794;42.652;23.318;2023-09-19T09:21:11;1.75;;;1.45;;
59008;SDS011;44794;42.652;23.318;2023-09-19T09:23:40;10.07;;;1.23;;
59008;SDS011;44794;42.652;23.318;2023-09-19T09:26:06;6.47;;;2.17;;
59008;SDS011;44794;42.652;23.318;2023-09-19T09:28:33;3.58;;;1.30;;
59008;SDS011;44794;42.652;23.318;2023-09-19T09:31:00;1.63;;;1.13;;
59008;SDS011;44794;42.652;23.318;2023-09-19T09:33:33;3.83;;;1.73;;
59008;SDS011;44794;42.652;23.318;2023-09-19T09:35:59;2.35;;;1.00;;
59008;SDS011;44794;42.652;23.318;2023-09-19T09:38:28;2.80;;;1.58;;
59008;SDS011;44794;42.652;23.318;2023-09-19T09:41:17;1.63;;;1.13;;
59008;SDS011;44794;42.652;23.318;2023-09-19T09:43:52;4.40;;;1.05;;
59008;SDS011;44794;42.652;23.318;2023-09-19T09:46:19;1.65;;;1.15;;
59008;SDS011;44794;42.652;23.318;2023-09-19T09:48:56;1.45;;;0.93;;
59008;SDS011;44794;42.652;23.318;2023-09-19T09:51:59;1.90;;;1.00;;
59008;SDS011;44794;42.652;23.318;2023-09-19T09:54:29;2.95;;;1.55;;
59008;SDS011;44794;42.652;23.318;2023-09-19T09:57:05;3.22;;;1.63;;
59008;SDS011;44794;42.652;23.318;2023-09-19T09:59:49;1.17;;;0.80;;
59008;SDS011;44794;42.652;23.318;2023-09-19T10:02:58;2.38;;;0.90;;
59008;SDS011;44794;42.652;23.318;2023-09-19T10:05:15;2.90;;;1.10;;
59008;SDS011;44794;42.652;23.318;2023-09-19T10:07:45;2.30;;;0.90;;
59008;SDS011;44794;42.652;23.318;2023-09-19T10:10:37;1.67;;;1.35;;
59008;SDS011;44794;42.652;23.318;2023-09-19T10:13:23;6.32;;;1.33;;
59008;SDS011;44794;42.652;23.318;2023-09-19T10:15:52;2.45;;;1.50;;
59008;SDS011;44794;42.652;23.318;2023-09-19T10:18:23;1.95;;;0.93;;
59008;SDS011;44794;42.652;23.318;2023-09-19T10:20:50;3.55;;;1.38;;
59008;SDS011;44794;42.652;23.318;2023-09-19T10:23:20;2.53;;;1.20;;
59008;SDS011;44794;42.652;23.318;2023-09-19T10:25:51;1.50;;;1.23;;
59008;SDS011;44794;42.652;23.318;2023-09-19T10:28:18;2.03;;;1.27;;
59008;SDS011;44794;42.652;23.318;2023-09-19T10:30:48;2.45;;;1.17;;
59008;SDS011;44794;42.652;23.318;2023-09-19T10:33:18;4.35;;;1.33;;
59008;SDS011;44794;42.652;23.318;2023-09-19T10:35:48;1.48;;;1.00;;
59008;SDS011;44794;42.652;23.318;2023-09-19T10:38:19;1.25;;;1.00;;
59008;SDS011;44794;42.652;23.318;2023-09-19T10:40:51;5.15;;;1.00;;
59008;SDS011;44794;42.652;23.318;2023-09-19T10:43:18;1.25;;;1.13;;
59008;SDS011;44794;42.652;23.318;2023-09-19T10:45:47;4.80;;;1.17;;
59008;SDS011;44794;42.652;23.318;2023-09-19T10:48:14;3.65;;;1.67;;
59008;SDS011;44794;42.652;23.318;2023-09-19T10:53:16;1.70;;;1.25;;
59008;SDS011;44794;42.652;23.318;2023-09-19T10:55:48;3.30;;;1.23;;
59008;SDS011;44794;42.652;23.318;2023-09-19T10:58:27;2.63;;;1.88;;
59008;SDS011;44794;42.652;23.318;2023-09-19T11:00:57;1.98;;;1.63;;
59008;SDS011;44794;42.652;23.318;2023-09-19T11:03:37;1.90;;;1.02;;
59008;SDS011;44794;42.652;23.318;2023-09-19T11:06:16;3.22;;;1.55;;
59008;SDS011;44794;42.652;23.318;2023-09-19T11:09:00;1.85;;;1.25;;
59008;SDS011;44794;42.652;23.318;2023-09-19T11:11:50;2.05;;;1.30;;
59008;SDS011;44794;42.652;23.318;2023-09-19T11:30:51;2.15;;;1.30;;
59008;SDS011;44794;42.652;23.318;2023-09-19T11:33:30;3.20;;;1.50;;
59008;SDS011;44794;42.652;23.318;2023-09-19T11:36:09;3.17;;;2.05;;
59008;SDS011;44794;42.652;23.318;2023-09-19T11:44:32;1.10;;;0.90;;
59008;SDS011;44794;42.652;23.318;2023-09-19T11:49:16;1.55;;;0.90;;
59008;SDS011;44794;42.652;23.318;2023-09-19T11:51:48;1.50;;;0.90;;
59008;SDS011;44794;42.652;23.318;2023-09-19T11:54:16;10.50;;;1.30;;
59008;SDS011;44794;42.652;23.318;2023-09-19T11:56:49;1.02;;;0.73;;
59008;SDS011;44794;42.652;23.318;2023-09-19T12:01:55;1.73;;;0.93;;
59008;SDS011;44794;42.652;23.318;2023-09-19T12:07:11;1.55;;;0.90;;
59008;SDS011;44794;42.652;23.318;2023-09-19T12:09:51;3.45;;;1.00;;
59008;SDS011;44794;42.652;23.318;2023-09-19T12:12:30;1.27;;;1.00;;
59008;SDS011;44794;42.652;23.318;2023-09-19T12:14:58;2.47;;;1.38;;
59008;SDS011;44794;42.652;23.318;2023-09-19T12:17:37;3.78;;;1.08;;
59008;SDS011;44794;42.652;23.318;2023-09-19T12:20:09;2.05;;;0.88;;
59008;SDS011;44794;42.652;23.318;2023-09-19T12:22:39;2.83;;;0.90;;
59008;SDS011;44794;42.652;23.318;2023-09-19T12:25:11;2.97;;;1.20;;
59008;SDS011;44794;42.652;23.318;2023-09-19T12:27:47;0.85;;;0.70;;
59008;SDS011;44794;42.652;23.318;2023-09-19T12:30:18;1.85;;;1.00;;
59008;SDS011;44794;42.652;23.318;2023-09-19T12:32:45;1.40;;;1.10;;
59008;SDS011;44794;42.652;23.318;2023-09-19T12:35:26;1.02;;;0.80;;
59008;SDS011;44794;42.652;23.318;2023-09-19T12:37:53;1.70;;;0.93;;
59008;SDS011;44794;42.652;23.318;2023-09-19T12:40:20;2.05;;;1.08;;
59008;SDS011;44794;42.652;23.318;2023-09-19T12:42:56;2.35;;;1.02;;
59008;SDS011;44794;42.652;23.318;2023-09-19T12:45:27;1.35;;;1.08;;
59008;SDS011;44794;42.652;23.318;2023-09-19T12:53:41;3.85;;;1.50;;
59008;SDS011;44794;42.652;23.318;2023-09-19T12:56:09;2.65;;;1.02;;
59008;SDS011;44794;42.652;23.318;2023-09-19T12:58:51;1.42;;;1.15;;
59008;SDS011;44794;42.652;23.318;2023-09-19T13:01:24;1.63;;;1.00;;
59008;SDS011;44794;42.652;23.318;2023-09-19T13:04:11;1.80;;;1.23;;
59008;SDS011;44794;42.652;23.318;2023-09-19T13:06:45;4.00;;;1.27;;
59008;SDS011;44794;42.652;23.318;2023-09-19T13:09:14;1.88;;;0.85;;
59008;SDS011;44794;42.652;23.318;2023-09-19T13:11:40;0.80;;;0.80;;
59008;SDS011;44794;42.652;23.318;2023-09-19T13:16:59;2.95;;;1.20;;
59008;SDS011;44794;42.652;23.318;2023-09-19T13:25:01;1.17;;;1.02;;
59008;SDS011;44794;42.652;23.318;2023-09-19T13:27:29;1.45;;;0.80;;
59008;SDS011;44794;42.652;23.318;2023-09-19T13:29:54;5.35;;;1.25;;
59008;SDS011;44794;42.652;23.318;2023-09-19T13:32:19;4.07;;;1.92;;
59008;SDS011;44794;42.652;23.318;2023-09-19T13:34:45;2.35;;;1.40;;
59008;SDS011;44794;42.652;23.318;2023-09-19T13:37:10;2.92;;;1.55;;
59008;SDS011;44794;42.652;23.318;2023-09-19T13:39:38;4.88;;;1.35;;
59008;SDS011;44794;42.652;23.318;2023-09-19T13:42:07;6.63;;;1.40;;
59008;SDS011;44794;42.652;23.318;2023-09-19T13:44:37;2.13;;;0.77;;
59008;SDS011;44794;42.652;23.318;2023-09-19T13:47:03;2.30;;;1.08;;
59008;SDS011;44794;42.652;23.318;2023-09-19T13:49:34;1.55;;;0.90;;
59008;SDS011;44794;42.652;23.318;2023-09-19T13:52:00;2.78;;;1.13;;
59008;SDS011;44794;42.652;23.318;2023-09-19T13:54:28;4.00;;;1.25;;
59008;SDS011;44794;42.652;23.318;2023-09-19T13:56:55;3.08;;;1.20;;
59008;SDS011;44794;42.652;23.318;2023-09-19T13:59:20;1.58;;;0.73;;
59008;SDS011;44794;42.652;23.318;2023-09-19T14:01:51;1.08;;;0.95;;
59008;SDS011;44794;42.652;23.318;2023-09-19T14:04:18;4.10;;;1.65;;
59008;SDS011;44794;42.652;23.318;2023-09-19T14:06:45;4.03;;;1.95;;
59008;SDS011;44794;42.652;23.318;2023-09-19T14:09:11;1.23;;;0.90;;
59008;SDS011;44794;42.652;23.318;2023-09-19T14:11:38;2.35;;;1.80;;
59008;SDS011;44794;42.652;23.318;2023-09-19T14:14:03;4.75;;;1.85;;
59008;SDS011;44794;42.652;23.318;2023-09-19T14:16:29;3.97;;;1.90;;
59008;SDS011;44794;42.652;23.318;2023-09-19T14:18:56;3.88;;;2.63;;
59008;SDS011;44794;42.652;23.318;2023-09-19T14:21:25;7.63;;;3.85;;
59008;SDS011;44794;42.652;23.318;2023-09-19T14:23:50;6.63;;;3.72;;
59008;SDS011;44794;42.652;23.318;2023-09-19T14:26:16;11.77;;;6.43;;
59008;SDS011;44794;42.652;23.318;2023-09-19T14:28:43;9.63;;;5.50;;
59008;SDS011;44794;42.652;23.318;2023-09-19T14:31:10;4.68;;;2.90;;
59008;SDS011;44794;42.652;23.318;2023-09-19T14:33:36;10.45;;;4.32;;
59008;SDS011;44794;42.652;23.318;2023-09-19T14:36:06;5.68;;;2.88;;
59008;SDS011;44794;42.652;23.318;2023-09-19T14:38:34;3.35;;;2.28;;
59008;SDS011;44794;42.652;23.318;2023-09-19T14:41:04;6.70;;;3.58;;
59008;SDS011;44794;42.652;23.318;2023-09-19T14:45:57;9.48;;;5.85;;
59008;SDS011;44794;42.652;23.318;2023-09-19T14:50:53;6.18;;;4.43;;
59008;SDS011;44794;42.652;23.318;2023-09-19T14:53:20;7.10;;;4.45;;
59008;SDS011;44794;42.652;23.318;2023-09-19T14:55:45;6.43;;;3.75;;
59008;SDS011;44794;42.652;23.318;2023-09-19T14:58:12;5.95;;;2.13;;
59008;SDS011;44794;42.652;23.318;2023-09-19T15:00:38;2.97;;;1.92;;
59008;SDS011;44794;42.652;23.318;2023-09-19T15:03:04;3.28;;;2.30;;
59008;SDS011;44794;42.652;23.318;2023-09-19T15:05:29;3.35;;;1.98;;
59008;SDS011;44794;42.652;23.318;2023-09-19T15:07:55;5.28;;;2.30;;
59008;SDS011;44794;42.652;23.318;2023-09-19T15:10:22;3.72;;;2.40;;
59008;SDS011;44794;42.652;23.318;2023-09-19T15:12:48;3.47;;;2.20;;
59008;SDS011;44794;42.652;23.318;2023-09-19T15:15:13;3.53;;;2.22;;
59008;SDS011;44794;42.652;23.318;2023-09-19T15:17:39;3.50;;;2.38;;
59008;SDS011;44794;42.652;23.318;2023-09-19T15:20:05;5.80;;;2.40;;
59008;SDS011;44794;42.652;23.318;2023-09-19T15:22:34;5.28;;;1.85;;
59008;SDS011;44794;42.652;23.318;2023-09-19T15:25:00;3.50;;;2.10;;
59008;SDS011;44794;42.652;23.318;2023-09-19T15:27:27;3.70;;;1.85;;
59008;SDS011;44794;42.652;23.318;2023-09-19T15:29:52;1.73;;;1.48;;
59008;SDS011;44794;42.652;23.318;2023-09-19T15:32:18;1.05;;;0.95;;
59008;SDS011;44794;42.652;23.318;2023-09-19T15:34:43;6.40;;;1.63;;
59008;SDS011;44794;42.652;23.318;2023-09-19T15:37:09;1.75;;;1.13;;
59008;SDS011;44794;42.652;23.318;2023-09-19T15:39:34;2.58;;;1.63;;
59008;SDS011;44794;42.652;23.318;2023-09-19T15:42:01;5.28;;;1.70;;
59008;SDS011;44794;42.652;23.318;2023-09-19T15:44:27;2.50;;;1.50;;
59008;SDS011;44794;42.652;23.318;2023-09-19T15:46:53;2.38;;;1.60;;
59008;SDS011;44794;42.652;23.318;2023-09-19T15:49:18;2.22;;;1.33;;
59008;SDS011;44794;42.652;23.318;2023-09-19T15:51:44;2.25;;;1.25;;
59008;SDS011;44794;42.652;23.318;2023-09-19T15:54:10;2.88;;;1.63;;
59008;SDS011;44794;42.652;23.318;2023-09-19T15:56:41;2.17;;;1.33;;
59008;SDS011;44794;42.652;23.318;2023-09-19T15:59:07;1.88;;;0.90;;
59008;SDS011;44794;42.652;23.318;2023-09-19T16:01:34;3.20;;;1.58;;
59008;SDS011;44794;42.652;23.318;2023-09-19T16:04:00;4.10;;;0.95;;
59008;SDS011;44794;42.652;23.318;2023-09-19T16:06:29;2.75;;;1.05;;